createdAt,value
2018-02-23T00:02:07.737Z,4.80
2018-02-23T00:04:40.283Z,4.79
2018-02-23T00:07:12.781Z,4.76
2018-02-23T00:09:45.313Z,4.81
2018-02-23T00:12:17.811Z,4.78
2018-02-23T00:14:50.327Z,4.60
2018-02-23T00:17:22.843Z,4.46
2018-02-23T00:19:55.364Z,4.63
2018-02-23T00:22:39.602Z,4.74
2018-02-23T00:25:12.128Z,4.63
2018-02-23T00:27:44.619Z,4.70
2018-02-23T00:30:17.147Z,4.83
2018-02-23T00:32:49.645Z,4.83
2018-02-23T00:35:22.181Z,4.66
2018-02-23T00:37:54.700Z,4.80
2018-02-23T00:40:27.223Z,4.62
2018-02-23T00:42:59.736Z,4.58
2018-02-23T00:45:32.277Z,4.60
2018-02-23T00:48:04.794Z,4.55
2018-02-23T00:50:38.365Z,4.69
2018-02-23T00:53:10.881Z,4.63
2018-02-23T00:55:43.403Z,4.76
2018-02-23T00:58:15.907Z,4.36
2018-02-23T01:00:48.440Z,4.50
2018-02-23T01:03:20.955Z,4.53
2018-02-23T01:05:53.481Z,4.35
2018-02-23T01:08:25.997Z,4.39
2018-02-23T01:10:58.526Z,4.43
2018-02-23T01:13:31.044Z,4.36
2018-02-23T01:16:03.566Z,4.46
2018-02-23T01:18:36.070Z,4.30
2018-02-23T01:21:08.591Z,3.92
2018-02-23T01:23:41.146Z,3.83
2018-02-23T01:26:13.681Z,3.91
2018-02-23T01:28:46.196Z,4.02
2018-02-23T01:31:18.707Z,4.10
2018-02-23T01:33:51.467Z,4.17
2018-02-23T01:36:24.212Z,4.27
2018-02-23T01:38:56.736Z,4.13
2018-02-23T01:41:29.263Z,3.94
2018-02-23T01:44:01.763Z,3.96
2018-02-23T01:46:34.286Z,3.95
2018-02-23T01:49:06.808Z,3.74
2018-02-23T01:51:39.338Z,3.88
2018-02-23T01:54:11.985Z,3.92
2018-02-23T01:56:44.501Z,4.01
2018-02-23T01:59:17.028Z,4.16
2018-02-23T02:01:49.551Z,4.30
2018-02-23T02:04:22.088Z,4.10
2018-02-23T02:06:54.585Z,4.01
2018-02-23T02:09:27.120Z,3.94
2018-02-23T02:11:59.623Z,4.06
2018-02-23T02:14:32.155Z,4.13
2018-02-23T02:17:04.662Z,4.28
2018-02-23T02:19:37.192Z,4.25
2018-02-23T02:22:09.724Z,4.20
2018-02-23T02:24:42.258Z,4.14
2018-02-23T02:27:14.780Z,4.11
2018-02-23T02:29:47.318Z,3.86
2018-02-23T02:32:19.823Z,3.65
2018-02-23T02:34:52.346Z,3.76
2018-02-23T02:37:24.849Z,3.86
2018-02-23T02:39:57.370Z,3.79
2018-02-23T02:42:29.891Z,4.15
2018-02-23T02:45:02.414Z,3.77
2018-02-23T02:47:34.918Z,3.96
2018-02-23T02:50:07.449Z,3.96
2018-02-23T02:52:39.948Z,3.98
2018-02-23T02:55:12.493Z,3.99
2018-02-23T02:57:46.095Z,3.97
2018-02-23T03:00:18.631Z,3.58
2018-02-23T03:02:51.133Z,3.68
2018-02-23T03:05:23.649Z,3.89
2018-02-23T03:07:56.158Z,3.72
2018-02-23T03:10:28.686Z,3.93
2018-02-23T03:13:01.183Z,3.92
2018-02-23T03:15:33.724Z,3.57
2018-02-23T03:18:06.233Z,3.56
2018-02-23T03:20:38.753Z,3.59
2018-02-23T03:23:11.259Z,3.65
2018-02-23T03:25:43.791Z,3.49
2018-02-23T03:28:16.286Z,3.46
2018-02-23T03:30:48.823Z,3.52
2018-02-23T03:33:21.317Z,3.54
2018-02-23T03:35:53.838Z,3.52
2018-02-23T03:38:26.351Z,3.58
2018-02-23T03:40:58.863Z,3.31
2018-02-23T03:43:31.354Z,3.56
2018-02-23T03:46:03.881Z,3.66
2018-02-23T03:48:36.387Z,3.49
2018-02-23T03:51:08.930Z,3.56
2018-02-23T03:53:41.464Z,3.37
2018-02-23T03:56:13.993Z,3.35
2018-02-23T03:58:46.504Z,3.13
2018-02-23T04:01:19.033Z,3.16
2018-02-23T04:03:51.560Z,2.75
2018-02-23T04:06:24.074Z,2.95
2018-02-23T04:08:56.966Z,3.03
2018-02-23T04:11:30.558Z,3.18
2018-02-23T04:14:03.152Z,3.26
2018-02-23T04:16:35.710Z,3.31
2018-02-23T04:19:08.214Z,3.17
2018-02-23T04:21:40.745Z,3.13
2018-02-23T04:24:13.255Z,3.21
2018-02-23T04:26:45.787Z,2.73
2018-02-23T04:29:18.284Z,2.60
2018-02-23T04:31:51.019Z,2.85
2018-02-23T04:34:23.516Z,2.92
2018-02-23T04:36:56.036Z,2.63
2018-02-23T04:39:28.552Z,2.82
2018-02-23T04:42:01.080Z,2.52
2018-02-23T04:44:33.573Z,2.63
2018-02-23T04:47:06.100Z,2.55
2018-02-23T04:49:41.963Z,2.26
2018-02-23T04:52:14.486Z,2.55
2018-02-23T04:54:46.982Z,2.70
2018-02-23T04:57:19.502Z,2.67
2018-02-23T04:59:52.002Z,2.58
2018-02-23T05:02:24.563Z,2.70
2018-02-23T05:04:57.045Z,2.37
2018-02-23T05:07:29.577Z,2.52
2018-02-23T05:10:02.109Z,2.29
2018-02-23T05:12:34.676Z,2.20
2018-02-23T05:15:07.182Z,1.89
2018-02-23T05:17:39.702Z,2.08
2018-02-23T05:20:12.208Z,2.00
2018-02-23T05:22:44.744Z,1.97
2018-02-23T05:25:18.100Z,1.61
2018-02-23T05:27:50.638Z,1.83
2018-02-23T05:30:23.163Z,2.00
2018-02-23T05:32:55.671Z,1.95
2018-02-23T05:35:28.198Z,1.92
2018-02-23T05:38:00.703Z,1.99
2018-02-23T05:40:33.218Z,1.64
2018-02-23T05:43:05.735Z,1.68
2018-02-23T05:45:38.256Z,1.61
2018-02-23T05:48:10.771Z,1.59
2018-02-23T05:50:43.296Z,1.65
2018-02-23T05:53:15.833Z,1.39
2018-02-23T05:55:48.352Z,1.60
2018-02-23T05:58:20.847Z,1.60
2018-02-23T06:00:53.369Z,1.14
2018-02-23T06:03:25.896Z,1.28
2018-02-23T06:05:58.412Z,1.28
2018-02-23T06:08:30.912Z,1.36
2018-02-23T06:11:03.446Z,1.48
2018-02-23T06:13:35.936Z,1.19
2018-02-23T06:16:14.185Z,1.09
2018-02-23T06:18:52.206Z,1.07
2018-02-23T06:21:24.721Z,1.15
2018-02-23T06:23:57.216Z,0.91
2018-02-23T06:26:29.747Z,1.02
2018-02-23T06:29:02.236Z,0.82
2018-02-23T06:31:34.758Z,1.08
2018-02-23T06:34:07.256Z,1.07
2018-02-23T06:36:39.788Z,1.12
2018-02-23T06:39:12.292Z,1.12
2018-02-23T06:41:44.821Z,1.16
2018-02-23T06:44:17.309Z,1.33
2018-02-23T06:46:55.477Z,1.21
2018-02-23T06:49:27.973Z,1.24
2018-02-23T06:52:00.493Z,1.34
2018-02-23T06:54:33.017Z,1.41
2018-02-23T06:57:05.535Z,1.48
2018-02-23T06:59:38.048Z,1.62
2018-02-23T07:02:10.573Z,1.60
2018-02-23T07:04:43.060Z,1.37
2018-02-23T07:07:15.585Z,1.06
2018-02-23T07:09:48.089Z,1.25
2018-02-23T07:12:20.603Z,1.52
2018-02-23T07:14:53.090Z,1.36
2018-02-23T07:17:25.621Z,1.21
2018-02-23T07:19:58.114Z,1.11
2018-02-23T07:22:30.644Z,0.93
2018-02-23T07:25:03.145Z,0.56
2018-02-23T07:27:35.665Z,0.73
2018-02-23T07:30:08.157Z,1.15
2018-02-23T07:32:40.677Z,1.29
2018-02-23T07:35:13.171Z,1.06
2018-02-23T07:37:45.680Z,1.22
2018-02-23T07:40:18.187Z,1.12
2018-02-23T07:42:50.691Z,1.25
2018-02-23T07:45:23.178Z,1.49
2018-02-23T07:47:55.717Z,1.12
2018-02-23T07:50:28.214Z,1.30
2018-02-23T07:53:00.746Z,1.77
2018-02-23T07:55:33.250Z,1.93
2018-02-23T07:58:05.775Z,1.90
2018-02-23T08:00:45.055Z,1.97
2018-02-23T08:03:17.598Z,1.61
2018-02-23T08:05:50.090Z,1.54
2018-02-23T08:08:22.610Z,1.81
2018-02-23T08:10:55.117Z,1.70
2018-02-23T08:13:27.648Z,1.64
2018-02-23T08:16:00.155Z,1.51
2018-02-23T08:18:32.671Z,1.27
2018-02-23T08:21:05.172Z,1.07
2018-02-23T08:23:37.683Z,1.18
2018-02-23T08:26:10.187Z,1.52
2018-02-23T08:28:42.694Z,1.56
2018-02-23T08:31:15.229Z,1.19
2018-02-23T08:33:47.751Z,1.35
2018-02-23T08:36:20.247Z,1.95
2018-02-23T08:38:52.769Z,1.82
2018-02-23T08:41:25.288Z,1.95
2018-02-23T08:43:57.813Z,1.62
2018-02-23T08:46:30.393Z,1.66
2018-02-23T08:49:02.912Z,1.70
2018-02-23T08:51:35.441Z,1.59
2018-02-23T08:54:07.940Z,0.97
2018-02-23T08:56:40.464Z,-0.12
2018-02-23T08:59:12.970Z,1.02
2018-02-23T09:01:45.495Z,1.60
2018-02-23T09:04:18.003Z,1.52
2018-02-23T09:06:50.532Z,1.61
2018-02-23T09:09:23.030Z,1.52
2018-02-23T09:11:55.550Z,1.57
2018-02-23T09:14:28.061Z,1.78
2018-02-23T09:17:00.581Z,1.76
2018-02-23T09:19:33.085Z,1.73
2018-02-23T09:22:05.607Z,1.83
2018-02-23T09:24:38.146Z,1.75
2018-02-23T09:27:10.683Z,2.01
2018-02-23T09:29:43.188Z,1.80
2018-02-23T09:32:27.536Z,2.41
2018-02-23T09:35:00.044Z,2.45
2018-02-23T09:37:32.595Z,2.33
2018-02-23T09:40:05.113Z,1.85
2018-02-23T09:42:37.637Z,1.97
2018-02-23T09:45:10.154Z,1.93
2018-02-23T09:47:42.688Z,2.18
2018-02-23T09:50:15.250Z,2.37
2018-02-23T09:52:47.745Z,2.38
2018-02-23T09:55:20.244Z,1.81
2018-02-23T09:57:52.767Z,1.68
2018-02-23T10:00:25.276Z,1.91
2018-02-23T10:02:57.797Z,1.13
2018-02-23T10:05:30.310Z,1.43
2018-02-23T10:08:02.857Z,0.77
2018-02-23T10:10:35.390Z,1.37
2018-02-23T10:13:07.919Z,1.11
2018-02-23T10:15:40.446Z,1.38
2018-02-23T10:18:12.968Z,2.13
2018-02-23T10:20:45.472Z,2.16
2018-02-23T10:23:18.002Z,2.04
2018-02-23T10:25:50.508Z,1.52
2018-02-23T10:28:23.043Z,1.73
2018-02-23T10:30:55.543Z,1.66
2018-02-23T10:33:28.081Z,1.50
2018-02-23T10:36:00.587Z,1.48
2018-02-23T10:38:33.108Z,1.71
2018-02-23T10:41:05.604Z,1.91
2018-02-23T10:43:38.130Z,1.92
2018-02-23T10:46:10.638Z,2.39
2018-02-23T10:48:43.153Z,2.62
2018-02-23T10:51:15.656Z,2.75
2018-02-23T10:53:48.185Z,2.41
2018-02-23T10:56:20.717Z,2.48
2018-02-23T10:58:53.318Z,2.69
2018-02-23T11:01:25.819Z,2.95
2018-02-23T11:03:58.353Z,2.88
2018-02-23T11:06:30.937Z,3.15
2018-02-23T11:09:03.490Z,2.94
2018-02-23T11:11:36.003Z,2.68
2018-02-23T11:14:08.527Z,2.96
2018-02-23T11:16:41.036Z,2.96
2018-02-23T11:19:13.562Z,2.89
2018-02-23T11:21:46.075Z,3.35
2018-02-23T11:24:18.616Z,3.66
2018-02-23T11:26:51.116Z,3.78
2018-02-23T11:29:23.641Z,3.14
2018-02-23T11:31:56.161Z,2.69
2018-02-23T11:34:28.690Z,2.87
2018-02-23T11:37:01.208Z,2.93
2018-02-23T11:39:33.719Z,2.74
2018-02-23T11:42:06.227Z,2.78
2018-02-23T11:44:38.759Z,2.90
2018-02-23T11:47:11.278Z,2.31
2018-02-23T11:49:43.808Z,2.43
2018-02-23T11:52:16.316Z,3.18
2018-02-23T11:54:48.836Z,3.32
2018-02-23T11:57:27.083Z,3.16
2018-02-23T11:59:59.613Z,3.56
2018-02-23T12:02:32.132Z,3.81
2018-02-23T12:05:04.646Z,3.94
2018-02-23T12:07:37.172Z,3.66
2018-02-23T12:10:09.672Z,3.80
2018-02-23T12:12:42.192Z,3.68
2018-02-23T12:15:14.688Z,4.48
2018-02-23T12:17:47.346Z,5.03
2018-02-23T12:20:19.864Z,5.43
2018-02-23T12:22:52.394Z,6.70
2018-02-23T12:25:24.909Z,5.48
2018-02-23T12:27:57.452Z,4.57
2018-02-23T12:30:29.968Z,3.74
2018-02-23T12:33:02.494Z,4.35
2018-02-23T12:35:34.995Z,4.26
2018-02-23T12:38:07.536Z,4.50
2018-02-23T12:40:40.044Z,4.11
2018-02-23T12:43:12.552Z,4.05
2018-02-23T12:45:45.048Z,4.16
2018-02-23T12:48:19.587Z,3.69
2018-02-23T12:50:52.089Z,4.08
2018-02-23T12:53:24.634Z,3.90
2018-02-23T12:55:57.132Z,4.66
2018-02-23T12:58:29.686Z,4.66
2018-02-23T13:01:02.199Z,4.35
2018-02-23T13:03:34.750Z,4.70
2018-02-23T13:06:07.265Z,4.48
2018-02-23T13:08:39.790Z,3.73
2018-02-23T13:11:12.293Z,4.30
2018-02-23T13:13:44.816Z,4.50
2018-02-23T13:16:22.948Z,4.40
2018-02-23T13:18:55.532Z,4.56
2018-02-23T13:21:28.034Z,4.64
2018-02-23T13:24:00.556Z,4.58
2018-02-23T13:26:33.066Z,4.73
2018-02-23T13:29:05.584Z,4.93
2018-02-23T13:31:38.084Z,4.84
2018-02-23T13:34:10.599Z,4.60
2018-02-23T13:36:43.112Z,4.77
2018-02-23T13:39:15.650Z,4.88
2018-02-23T13:41:48.149Z,4.99
2018-02-23T13:44:20.682Z,5.00
2018-02-23T13:46:53.185Z,5.05
2018-02-23T13:49:25.706Z,4.96
2018-02-23T13:51:58.213Z,5.00
2018-02-23T13:54:30.740Z,5.07
2018-02-23T13:57:03.241Z,4.78
2018-02-23T13:59:35.767Z,4.70
2018-02-23T14:02:08.266Z,4.52
2018-02-23T14:04:40.795Z,4.66
2018-02-23T14:07:18.837Z,4.51
2018-02-23T14:09:51.358Z,4.68
2018-02-23T14:12:23.861Z,4.33
2018-02-23T14:14:56.385Z,4.65
2018-02-23T14:17:28.886Z,4.43
2018-02-23T14:20:01.411Z,4.03
2018-02-23T14:22:33.917Z,4.10
2018-02-23T14:25:06.434Z,4.49
2018-02-23T14:27:38.932Z,4.52
2018-02-23T14:30:11.449Z,4.47
2018-02-23T14:32:43.954Z,4.53
2018-02-23T14:35:16.510Z,3.29
2018-02-23T14:37:49.020Z,4.02
2018-02-23T14:40:21.546Z,3.82
2018-02-23T14:42:54.049Z,4.11
2018-02-23T14:45:26.569Z,4.15
2018-02-23T14:47:59.075Z,4.65
2018-02-23T14:53:36.896Z,3.95
2018-02-23T14:56:09.453Z,4.00
2018-02-23T14:58:41.961Z,4.31
2018-02-23T15:01:14.492Z,4.14
2018-02-23T15:03:47.011Z,4.25
2018-02-23T15:06:19.537Z,4.18
2018-02-23T15:08:52.036Z,3.90
2018-02-23T15:11:24.553Z,3.88
2018-02-23T15:13:57.060Z,4.11
2018-02-23T15:16:29.594Z,3.47
2018-02-23T15:19:02.129Z,3.96
2018-02-23T15:21:34.651Z,4.04
2018-02-23T15:24:07.160Z,4.16
2018-02-23T15:26:39.741Z,4.18
2018-02-23T15:29:12.241Z,4.25
2018-02-23T15:31:56.525Z,4.22
2018-02-23T15:34:29.032Z,4.25
2018-02-23T15:37:01.615Z,4.05
2018-02-23T15:39:34.108Z,4.11
2018-02-23T15:42:07.122Z,3.93
2018-02-23T15:44:39.732Z,3.98
2018-02-23T15:47:12.277Z,3.74
2018-02-23T15:49:59.298Z,3.63
2018-02-23T15:52:31.813Z,3.56
2018-02-23T15:55:04.341Z,3.49
2018-02-23T16:00:48.172Z,3.48
2018-02-23T16:03:20.682Z,3.68
2018-02-23T16:05:53.212Z,3.68
2018-02-23T16:08:25.725Z,3.47
2018-02-23T16:10:58.250Z,3.63
2018-02-23T16:13:30.757Z,3.08
2018-02-23T16:16:03.285Z,3.62
2018-02-23T16:18:35.782Z,3.66
2018-02-23T16:21:08.304Z,3.60
2018-02-23T16:23:40.816Z,3.33
2018-02-23T16:26:13.350Z,3.47
2018-02-23T16:28:45.859Z,3.61
2018-02-23T16:31:18.365Z,3.54
2018-02-23T16:33:50.876Z,3.23
2018-02-23T16:36:23.392Z,3.22
2018-02-23T16:38:55.887Z,3.34
2018-02-23T16:41:28.416Z,3.20
2018-02-23T16:44:00.908Z,3.26
2018-02-23T16:46:33.488Z,3.19
2018-02-23T16:49:05.989Z,3.27
2018-02-23T16:51:38.533Z,3.09
2018-02-23T16:54:11.047Z,2.92
2018-02-23T16:56:43.565Z,2.87
2018-02-23T16:59:16.060Z,2.87
2018-02-23T17:01:48.605Z,2.75
2018-02-23T17:04:21.099Z,2.85
2018-02-23T17:06:53.617Z,2.80
2018-02-23T17:09:26.123Z,3.05
2018-02-23T17:11:58.655Z,2.89
2018-02-23T17:14:31.152Z,3.16
2018-02-23T17:17:03.676Z,3.25
2018-02-23T17:19:36.172Z,3.05
2018-02-23T17:22:08.690Z,3.14
2018-02-23T17:24:41.192Z,3.12
2018-02-23T17:27:13.702Z,2.86
2018-02-23T17:29:46.226Z,3.04
2018-02-23T17:32:18.759Z,3.07
2018-02-23T17:34:51.249Z,3.06
2018-02-23T17:37:23.777Z,3.11
2018-02-23T17:39:56.308Z,2.96
2018-02-23T17:42:28.861Z,3.00
2018-02-23T17:45:01.365Z,2.92
2018-02-23T17:47:33.883Z,2.99
2018-02-23T17:50:06.378Z,3.06
2018-02-23T17:52:38.909Z,3.00
2018-02-23T17:55:11.412Z,2.65
2018-02-23T17:57:43.928Z,2.82
2018-02-23T18:00:16.510Z,2.58
2018-02-23T18:02:49.012Z,2.42
2018-02-23T18:05:21.522Z,2.36
2018-02-23T18:07:54.090Z,2.49
2018-02-23T18:10:26.622Z,2.32
2018-02-23T18:12:59.116Z,2.65
2018-02-23T18:15:31.629Z,2.74
2018-02-23T18:18:04.216Z,2.63
2018-02-23T18:20:36.739Z,2.55
2018-02-23T18:23:09.240Z,2.43
2018-02-23T18:25:41.764Z,2.32
2018-02-23T18:28:14.280Z,2.18
2018-02-23T18:30:46.798Z,2.26
2018-02-23T18:33:19.329Z,2.20
2018-02-23T18:35:51.865Z,2.24
2018-02-23T18:38:24.421Z,2.39
2018-02-23T18:40:56.946Z,2.45
2018-02-23T18:43:29.795Z,2.55
2018-02-23T18:46:02.320Z,2.55
2018-02-23T18:48:34.842Z,2.58
2018-02-23T18:51:07.373Z,2.59
2018-02-23T18:53:39.880Z,2.48
2018-02-23T18:56:12.395Z,2.44
2018-02-23T18:58:44.910Z,2.49
2018-02-23T19:01:17.429Z,2.40
2018-02-23T19:03:49.930Z,2.23
2018-02-23T19:06:22.458Z,2.31
2018-02-23T19:08:54.952Z,2.32
2018-02-23T19:11:27.494Z,2.20
2018-02-23T19:14:00.011Z,2.14
2018-02-23T19:16:32.568Z,2.08
2018-02-23T19:19:05.093Z,2.05
2018-02-23T19:21:37.624Z,1.90
2018-02-23T19:24:10.149Z,2.02
2018-02-23T19:26:42.831Z,2.06
2018-02-23T19:29:15.403Z,2.02
2018-02-23T19:31:47.944Z,1.85
2018-02-23T19:34:20.541Z,1.89
2018-02-23T19:36:53.061Z,1.85
2018-02-23T19:39:25.564Z,1.68
2018-02-23T19:41:58.081Z,1.73
2018-02-23T19:44:30.637Z,1.61
2018-02-23T19:47:03.155Z,1.79
2018-02-23T19:49:35.653Z,1.55
2018-02-23T19:52:08.177Z,1.58
2018-02-23T19:54:40.696Z,1.44
2018-02-23T19:57:13.269Z,1.59
2018-02-23T19:59:45.863Z,1.34
2018-02-23T20:02:18.393Z,1.52
2018-02-23T20:04:50.889Z,1.42
2018-02-23T20:07:23.679Z,1.29
2018-02-23T20:09:56.249Z,1.33
2018-02-23T20:12:28.774Z,1.34
2018-02-23T20:15:01.295Z,1.37
2018-02-23T20:17:33.816Z,1.19
2018-02-23T20:20:06.305Z,1.52
2018-02-23T20:22:38.931Z,1.56
2018-02-23T20:25:11.436Z,1.63
2018-02-23T20:27:43.955Z,1.56
2018-02-23T20:30:16.465Z,1.49
2018-02-23T20:32:48.976Z,1.54
2018-02-23T20:35:21.469Z,1.52
2018-02-23T20:37:53.996Z,1.11
2018-02-23T20:40:26.601Z,1.29
2018-02-23T20:43:01.061Z,1.11
2018-02-23T20:45:34.553Z,1.30
2018-02-23T20:48:07.101Z,1.36
2018-02-23T20:50:39.629Z,1.44
2018-02-23T20:53:12.218Z,1.05
2018-02-23T20:55:45.057Z,1.12
2018-02-23T20:58:18.030Z,1.15
2018-02-23T21:00:50.996Z,1.37
2018-02-23T21:03:23.920Z,1.18
2018-02-23T21:05:56.452Z,1.26
2018-02-23T21:08:28.970Z,1.04
2018-02-23T21:11:01.472Z,0.95
2018-02-23T21:13:34.001Z,1.19
2018-02-23T21:16:06.501Z,0.95
2018-02-23T21:18:39.012Z,1.06
2018-02-23T21:21:11.508Z,0.97
2018-02-23T21:23:44.032Z,0.83
2018-02-23T21:26:16.535Z,0.69
2018-02-23T21:28:49.070Z,1.00
2018-02-23T21:31:21.566Z,1.03
2018-02-23T21:33:54.092Z,0.99
2018-02-23T21:36:26.614Z,0.81
2018-02-23T21:38:59.107Z,0.91
2018-02-23T21:41:43.653Z,0.84
2018-02-23T21:44:16.158Z,0.80
2018-02-23T21:46:48.666Z,0.87
2018-02-23T21:49:21.235Z,0.74
2018-02-23T21:51:53.753Z,0.73
2018-02-23T21:54:26.240Z,0.77
2018-02-23T21:56:59.824Z,0.63
2018-02-23T21:59:32.342Z,0.48
2018-02-23T22:02:04.866Z,0.78
2018-02-23T22:04:37.371Z,0.83
2018-02-23T22:07:09.888Z,0.91
2018-02-23T22:09:42.417Z,0.92
2018-02-23T22:12:14.948Z,0.79
2018-02-23T22:14:47.454Z,0.72
2018-02-23T22:17:21.595Z,0.74
2018-02-23T22:19:54.094Z,0.77
2018-02-23T22:22:26.607Z,0.82
2018-02-23T22:24:59.116Z,0.60
2018-02-23T22:27:31.650Z,0.70
2018-02-23T22:30:04.189Z,0.29
2018-02-23T22:32:36.869Z,0.65
2018-02-23T22:35:09.357Z,0.68
2018-02-23T22:37:42.276Z,0.58
2018-02-23T22:40:14.781Z,0.58
2018-02-23T22:42:47.302Z,0.68
2018-02-23T22:45:19.877Z,0.76
2018-02-23T22:47:52.401Z,0.71
2018-02-23T22:50:24.895Z,0.79
2018-02-23T22:52:57.436Z,0.73
2018-02-23T22:55:29.936Z,0.69
2018-02-23T22:58:02.460Z,0.71
2018-02-23T23:00:35.107Z,0.72
2018-02-23T23:03:07.644Z,0.79
2018-02-23T23:05:40.186Z,0.93
2018-02-23T23:08:12.738Z,0.77
2018-02-23T23:10:45.288Z,0.89
2018-02-23T23:13:17.821Z,0.77
2018-02-23T23:15:50.316Z,0.60
2018-02-23T23:18:22.850Z,0.64
2018-02-23T23:20:55.376Z,0.68
2018-02-23T23:23:27.904Z,0.76
2018-02-23T23:26:00.464Z,0.44
2018-02-23T23:28:33.011Z,0.59
2018-02-23T23:31:05.715Z,0.76
2018-02-23T23:33:39.277Z,0.70
2018-02-23T23:36:11.813Z,0.73
2018-02-23T23:38:44.327Z,0.65
2018-02-23T23:41:16.828Z,0.73
2018-02-23T23:43:49.378Z,0.75
2018-02-23T23:46:21.877Z,0.51
2018-02-23T23:48:54.410Z,0.53
2018-02-23T23:51:26.936Z,0.66
2018-02-23T23:53:59.461Z,0.70
2018-02-23T23:56:31.971Z,0.45
2018-02-23T23:59:04.501Z,0.21
